createdAt,value
2022-09-26T00:02:03.722Z,99.90
2022-09-26T00:04:35.664Z,99.90
2022-09-26T00:07:07.483Z,99.90
2022-09-26T00:09:39.388Z,99.90
2022-09-26T00:12:11.420Z,99.90
2022-09-26T00:14:43.313Z,99.90
2022-09-26T00:17:15.147Z,99.90
2022-09-26T00:19:47.050Z,99.90
2022-09-26T00:22:18.870Z,99.90
2022-09-26T00:24:50.757Z,99.90
2022-09-26T00:27:22.695Z,99.90
2022-09-26T00:29:54.559Z,99.90
2022-09-26T00:32:26.484Z,99.90
2022-09-26T00:34:58.400Z,99.90
2022-09-26T00:37:30.186Z,99.90
2022-09-26T00:40:02.257Z,99.90
2022-09-26T00:42:34.086Z,99.90
2022-09-26T00:45:06.365Z,99.90
2022-09-26T00:47:41.414Z,99.90
2022-09-26T00:50:17.252Z,99.90
2022-09-26T00:52:54.239Z,99.90
2022-09-26T00:55:31.121Z,99.90
2022-09-26T00:58:09.832Z,99.90
2022-09-26T01:00:44.354Z,99.90
2022-09-26T01:03:17.938Z,99.90
2022-09-26T01:05:50.321Z,99.90
2022-09-26T01:08:29.302Z,99.90
2022-09-26T01:11:02.991Z,99.90
2022-09-26T01:13:36.719Z,99.90
2022-09-26T01:16:08.884Z,99.90
2022-09-26T01:18:41.570Z,99.90
2022-09-26T01:21:32.496Z,99.90
2022-09-26T01:24:38.384Z,99.90
2022-09-26T01:27:35.281Z,99.90
2022-09-26T01:30:08.539Z,99.90
2022-09-26T01:33:07.897Z,99.90
2022-09-26T01:35:45.774Z,99.90
2022-09-26T01:38:39.521Z,99.90
2022-09-26T01:41:39.032Z,99.90
2022-09-26T01:44:29.859Z,99.90
2022-09-26T01:47:08.712Z,99.90
2022-09-26T01:49:40.483Z,99.90
2022-09-26T01:52:27.927Z,99.90
2022-09-26T01:55:21.547Z,99.90
2022-09-26T01:58:20.040Z,99.90
2022-09-26T02:00:58.373Z,99.90
2022-09-26T02:03:36.661Z,99.90
2022-09-26T02:06:14.207Z,99.90
2022-09-26T02:08:52.916Z,99.90
2022-09-26T02:11:27.189Z,99.90
2022-09-26T02:14:07.041Z,99.90
2022-09-26T02:16:51.186Z,99.90
2022-09-26T02:19:28.643Z,99.90
2022-09-26T02:22:00.995Z,99.90
2022-09-26T02:24:32.922Z,99.90
2022-09-26T02:27:06.891Z,99.90
2022-09-26T02:29:39.386Z,99.90
2022-09-26T02:32:19.093Z,99.90
2022-09-26T02:34:51.695Z,99.90
2022-09-26T02:37:25.525Z,99.90
2022-09-26T02:39:57.523Z,99.90
2022-09-26T02:42:36.766Z,99.90
2022-09-26T02:45:32.556Z,99.90
2022-09-26T02:48:23.846Z,99.90
2022-09-26T02:51:20.658Z,99.90
2022-09-26T02:53:55.637Z,99.90
2022-09-26T02:57:03.502Z,99.90
2022-09-26T03:00:01.610Z,99.90
2022-09-26T03:02:42.470Z,99.90
2022-09-26T03:05:27.440Z,99.90
2022-09-26T03:08:09.597Z,99.90
2022-09-26T03:10:43.635Z,99.90
2022-09-26T03:13:18.599Z,99.90
2022-09-26T03:15:56.212Z,99.90
2022-09-26T03:19:02.917Z,99.90
2022-09-26T03:21:37.444Z,99.90
2022-09-26T03:24:10.293Z,99.90
2022-09-26T03:26:43.110Z,99.90
2022-09-26T03:29:15.177Z,99.90
2022-09-26T03:31:50.244Z,99.90
2022-09-26T03:34:23.743Z,99.90
2022-09-26T03:36:56.105Z,99.90
2022-09-26T03:39:28.782Z,99.90
2022-09-26T03:42:14.204Z,99.90
2022-09-26T03:44:46.807Z,99.90
2022-09-26T03:47:18.730Z,99.90
2022-09-26T03:49:54.959Z,99.90
2022-09-26T03:52:28.631Z,99.90
2022-09-26T03:55:00.527Z,99.90
2022-09-26T03:57:32.410Z,99.90
2022-09-26T04:00:16.350Z,99.90
2022-09-26T04:02:48.119Z,99.90
2022-09-26T04:05:38.656Z,99.90
2022-09-26T04:08:11.807Z,99.90
2022-09-26T04:10:44.155Z,99.90
2022-09-26T04:13:39.779Z,99.90
2022-09-26T04:16:09.951Z,99.90
2022-09-26T04:18:41.934Z,99.90
2022-09-26T04:21:16.831Z,99.90
2022-09-26T04:23:50.247Z,99.90
2022-09-26T04:26:24.368Z,99.90
2022-09-26T04:28:58.774Z,99.90
2022-09-26T04:31:51.314Z,99.90
2022-09-26T04:34:27.449Z,99.90
2022-09-26T04:37:00.600Z,99.90
2022-09-26T04:39:33.257Z,99.90
2022-09-26T04:42:05.650Z,99.90
2022-09-26T04:44:37.581Z,99.90
2022-09-26T04:47:09.485Z,99.90
2022-09-26T04:50:00.161Z,99.90
2022-09-26T04:52:32.677Z,99.90
2022-09-26T04:55:04.998Z,99.90
2022-09-26T04:57:38.036Z,99.90
2022-09-26T05:00:12.757Z,99.90
2022-09-26T05:02:47.963Z,99.90
2022-09-26T05:05:20.055Z,99.90
2022-09-26T05:07:52.495Z,99.90
2022-09-26T05:10:24.367Z,99.90
2022-09-26T05:13:03.426Z,99.90
2022-09-26T05:15:39.168Z,99.90
2022-09-26T05:18:12.103Z,99.90
2022-09-26T05:20:48.310Z,99.90
2022-09-26T05:23:44.738Z,99.90
2022-09-26T05:26:47.628Z,99.90
2022-09-26T05:29:20.537Z,99.90
2022-09-26T05:32:06.164Z,99.90
2022-09-26T05:34:42.625Z,99.90
2022-09-26T05:37:21.909Z,99.90
2022-09-26T05:40:14.363Z,99.90
2022-09-26T05:42:53.085Z,99.90
2022-09-26T05:45:24.986Z,99.90
2022-09-26T05:47:57.933Z,99.90
2022-09-26T05:50:30.443Z,99.90
2022-09-26T05:53:03.124Z,99.90
2022-09-26T05:55:34.982Z,99.90
2022-09-26T05:58:38.010Z,99.90
2022-09-26T06:01:30.235Z,99.90
2022-09-26T06:04:10.609Z,99.90
2022-09-26T06:06:57.559Z,99.90
2022-09-26T06:09:29.496Z,99.90
2022-09-26T06:12:19.593Z,99.90
2022-09-26T06:14:53.036Z,99.90
2022-09-26T06:17:25.677Z,99.90
2022-09-26T06:19:58.345Z,99.90
2022-09-26T06:22:30.253Z,99.90
2022-09-26T06:25:03.521Z,99.90
2022-09-26T06:27:38.497Z,99.90
2022-09-26T06:30:11.960Z,99.90
2022-09-26T06:32:46.390Z,99.90
2022-09-26T06:35:44.118Z,99.90
2022-09-26T06:38:25.352Z,99.90
2022-09-26T06:40:57.353Z,99.90
2022-09-26T06:43:29.446Z,99.90
2022-09-26T06:46:21.055Z,99.90
2022-09-26T06:49:11.782Z,99.90
2022-09-26T06:51:49.443Z,99.70
2022-09-26T06:54:22.703Z,99.40
2022-09-26T06:56:54.765Z,99.90
2022-09-26T06:59:26.764Z,99.90
2022-09-26T07:02:08.754Z,99.90
2022-09-26T07:04:59.684Z,99.90
2022-09-26T07:07:55.402Z,99.90
2022-09-26T07:10:34.697Z,99.90
2022-09-26T07:13:11.552Z,99.90
2022-09-26T07:15:47.228Z,99.90
2022-09-26T07:18:42.160Z,99.90
2022-09-26T07:21:49.317Z,99.90
2022-09-26T07:24:34.481Z,99.90
2022-09-26T07:27:06.326Z,99.90
2022-09-26T07:29:39.567Z,99.90
2022-09-26T07:32:11.582Z,99.90
2022-09-26T07:34:55.082Z,99.90
2022-09-26T07:37:29.271Z,99.90
2022-09-26T07:40:02.269Z,99.90
2022-09-26T07:42:38.719Z,99.90
2022-09-26T07:45:27.797Z,99.90
2022-09-26T07:48:20.334Z,99.90
2022-09-26T07:51:11.851Z,99.90
2022-09-26T07:53:50.399Z,99.90
2022-09-26T07:56:41.999Z,99.90
2022-09-26T07:59:45.939Z,99.20
2022-09-26T08:02:49.204Z,98.10
2022-09-26T08:05:24.596Z,98.50
2022-09-26T08:07:57.408Z,98.90
2022-09-26T08:10:47.963Z,99.30
2022-09-26T08:13:49.966Z,99.30
2022-09-26T08:16:42.091Z,99.70
2022-09-26T08:19:17.347Z,99.40
2022-09-26T08:21:50.342Z,98.70
2022-09-26T08:24:23.511Z,99.40
2022-09-26T08:27:19.290Z,98.40
2022-09-26T08:29:52.631Z,97.90
2022-09-26T08:32:24.652Z,97.50
2022-09-26T08:34:56.696Z,98.70
2022-09-26T08:37:52.098Z,99.90
2022-09-26T08:40:51.588Z,99.90
2022-09-26T08:43:51.686Z,99.90
2022-09-26T08:47:05.897Z,98.90
2022-09-26T08:50:37.039Z,98.00
2022-09-26T08:53:26.564Z,98.60
2022-09-26T08:56:01.211Z,98.30
2022-09-26T08:58:42.883Z,98.40
2022-09-26T09:01:24.862Z,97.90
2022-09-26T09:04:31.552Z,97.50
2022-09-26T09:07:15.289Z,98.10
2022-09-26T09:09:47.389Z,97.90
2022-09-26T09:12:43.074Z,97.30
2022-09-26T09:16:23.186Z,97.10
2022-09-26T09:19:22.359Z,97.20
2022-09-26T09:22:46.386Z,97.10
2022-09-26T09:25:42.790Z,97.20
2022-09-26T09:28:19.875Z,96.90
2022-09-26T09:30:58.761Z,96.30
2022-09-26T09:34:00.476Z,96.70
2022-09-26T09:36:45.830Z,96.10
2022-09-26T09:39:39.229Z,96.50
2022-09-26T09:42:19.726Z,96.10
2022-09-26T09:45:25.000Z,96.20
2022-09-26T09:47:57.987Z,98.60
2022-09-26T09:50:44.484Z,98.90
2022-09-26T09:53:22.608Z,99.00
2022-09-26T09:56:07.482Z,98.80
2022-09-26T09:59:17.500Z,97.90
2022-09-26T10:02:33.787Z,98.00
2022-09-26T10:05:29.589Z,96.20
2022-09-26T10:08:04.686Z,96.10
2022-09-26T10:11:12.963Z,96.30
2022-09-26T10:14:07.618Z,95.70
2022-09-26T10:17:10.420Z,95.70
2022-09-26T10:20:05.544Z,94.00
2022-09-26T10:22:45.456Z,94.50
2022-09-26T10:25:28.252Z,95.80
2022-09-26T10:28:02.382Z,96.90
2022-09-26T10:30:50.063Z,96.60
2022-09-26T10:33:32.689Z,96.00
2022-09-26T10:36:20.959Z,95.70
2022-09-26T10:39:25.368Z,95.40
2022-09-26T10:42:02.027Z,96.10
2022-09-26T10:44:36.649Z,97.10
2022-09-26T10:47:20.474Z,96.90
2022-09-26T10:50:27.779Z,96.70
2022-09-26T10:53:09.922Z,96.10
2022-09-26T10:56:08.382Z,96.20
2022-09-26T10:58:45.022Z,96.50
2022-09-26T11:01:26.561Z,96.40
2022-09-26T11:04:38.732Z,96.40
2022-09-26T11:07:34.856Z,97.70
2022-09-26T11:10:34.361Z,97.60
2022-09-26T11:13:30.142Z,98.30
2022-09-26T11:16:14.665Z,97.60
2022-09-26T11:18:59.021Z,97.20
2022-09-26T11:22:10.460Z,96.80
2022-09-26T11:25:07.338Z,96.40
2022-09-26T11:27:46.769Z,96.80
2022-09-26T11:30:27.914Z,97.30
2022-09-26T11:33:14.030Z,97.00
2022-09-26T11:36:14.720Z,97.60
2022-09-26T11:39:18.500Z,98.00
2022-09-26T11:42:18.974Z,97.60
2022-09-26T11:44:58.445Z,97.00
2022-09-26T11:47:55.016Z,97.70
2022-09-26T11:50:46.507Z,97.20
2022-09-26T11:53:28.765Z,97.10
2022-09-26T11:56:31.354Z,96.60
2022-09-26T11:59:27.900Z,95.80
2022-09-26T12:02:31.850Z,96.30
2022-09-26T12:05:27.347Z,96.80
2022-09-26T12:08:21.699Z,97.10
2022-09-26T12:11:15.296Z,96.30
2022-09-26T12:13:52.360Z,96.40
2022-09-26T12:16:45.711Z,96.20
2022-09-26T12:19:35.499Z,96.40
2022-09-26T12:22:29.571Z,96.30
2022-09-26T12:25:36.042Z,96.70
2022-09-26T12:28:22.942Z,96.60
2022-09-26T12:31:20.635Z,95.50
2022-09-26T12:34:20.790Z,95.80
2022-09-26T12:37:04.863Z,95.50
2022-09-26T12:40:01.664Z,95.50
2022-09-26T12:42:51.478Z,95.30
2022-09-26T12:45:23.302Z,95.40
2022-09-26T12:48:18.187Z,95.30
2022-09-26T12:51:04.811Z,95.20
2022-09-26T12:53:55.367Z,95.90
2022-09-26T12:56:48.068Z,95.60
2022-09-26T12:59:56.845Z,95.20
2022-09-26T13:02:28.794Z,95.20
2022-09-26T13:05:32.251Z,94.70
2022-09-26T13:08:25.117Z,94.40
2022-09-26T13:11:32.447Z,94.00
2022-09-26T13:14:52.623Z,93.80
2022-09-26T13:17:37.413Z,93.60
2022-09-26T13:20:18.954Z,93.50
2022-09-26T13:22:57.898Z,94.50
2022-09-26T13:25:35.843Z,94.40
2022-09-26T13:28:24.184Z,94.70
2022-09-26T13:31:18.985Z,95.20
2022-09-26T13:34:00.557Z,95.40
2022-09-26T13:36:37.387Z,95.60
2022-09-26T13:39:38.446Z,94.90
2022-09-26T13:42:37.487Z,94.30
2022-09-26T13:45:46.860Z,94.30
2022-09-26T13:48:58.929Z,93.70
2022-09-26T13:51:40.339Z,94.60
2022-09-26T13:54:18.198Z,94.00
2022-09-26T13:56:50.616Z,92.80
2022-09-26T13:59:34.550Z,92.10
2022-09-26T14:02:27.204Z,92.70
2022-09-26T14:04:59.121Z,93.30
2022-09-26T14:08:01.345Z,94.00
2022-09-26T14:10:43.290Z,94.30
2022-09-26T14:13:17.881Z,94.30
2022-09-26T14:15:57.241Z,94.50
2022-09-26T14:18:53.274Z,94.70
2022-09-26T14:21:35.811Z,94.60
2022-09-26T14:24:26.452Z,94.70
2022-09-26T14:27:05.655Z,94.80
2022-09-26T14:29:44.682Z,94.40
2022-09-26T14:32:23.304Z,94.70
2022-09-26T14:34:57.891Z,95.00
2022-09-26T14:37:31.242Z,94.40
2022-09-26T14:40:17.217Z,95.00
2022-09-26T14:43:16.013Z,94.70
2022-09-26T14:46:17.745Z,95.10
2022-09-26T14:48:58.559Z,95.70
2022-09-26T14:51:37.477Z,95.30
2022-09-26T14:54:25.550Z,95.90
2022-09-26T14:57:08.140Z,96.00
2022-09-26T14:59:42.111Z,95.80
2022-09-26T15:02:14.496Z,95.50
2022-09-26T15:04:54.406Z,95.50
2022-09-26T15:07:29.881Z,95.10
2022-09-26T15:10:20.441Z,95.20
2022-09-26T15:13:00.854Z,95.00
2022-09-26T15:15:41.764Z,94.50
2022-09-26T15:18:37.944Z,94.30
2022-09-26T15:21:18.526Z,94.20
2022-09-26T15:24:04.187Z,93.60
2022-09-26T15:26:37.148Z,93.60
2022-09-26T15:29:12.693Z,92.90
2022-09-26T15:31:46.327Z,93.10
2022-09-26T15:34:23.914Z,93.20
2022-09-26T15:36:57.782Z,93.50
2022-09-26T15:39:37.110Z,92.90
2022-09-26T15:42:33.409Z,93.00
2022-09-26T15:45:27.208Z,93.00
2022-09-26T15:48:01.857Z,93.20
2022-09-26T15:50:43.199Z,93.40
2022-09-26T15:53:28.543Z,94.10
2022-09-26T15:56:08.843Z,94.70
2022-09-26T15:58:40.996Z,95.20
2022-09-26T16:01:25.711Z,95.40
2022-09-26T16:04:21.029Z,95.50
2022-09-26T16:07:04.918Z,96.30
2022-09-26T16:09:40.499Z,96.50
2022-09-26T16:12:15.688Z,96.90
2022-09-26T16:14:52.521Z,96.80
2022-09-26T16:17:24.526Z,96.80
2022-09-26T16:20:22.064Z,97.00
2022-09-26T16:23:04.119Z,97.90
2022-09-26T16:25:49.478Z,98.30
2022-09-26T16:28:40.031Z,98.10
2022-09-26T16:31:24.492Z,97.30
2022-09-26T16:33:58.860Z,97.60
2022-09-26T16:36:35.106Z,97.80
2022-09-26T16:39:27.738Z,98.10
2022-09-26T16:42:12.901Z,98.30
2022-09-26T16:44:52.502Z,98.40
2022-09-26T16:47:42.648Z,98.70
2022-09-26T16:50:19.870Z,98.60
2022-09-26T16:52:52.186Z,99.10
2022-09-26T16:55:25.716Z,99.50
2022-09-26T16:58:00.609Z,99.90
2022-09-26T17:00:53.237Z,99.80
2022-09-26T17:03:27.812Z,99.90
2022-09-26T17:06:00.267Z,99.90
2022-09-26T17:08:33.941Z,99.90
2022-09-26T17:11:14.210Z,99.90
2022-09-26T17:13:49.758Z,99.90
2022-09-26T17:16:22.104Z,99.90
2022-09-26T17:18:56.966Z,99.90
2022-09-26T17:21:28.922Z,99.90
2022-09-26T17:24:01.231Z,99.90
2022-09-26T17:26:35.005Z,99.90
2022-09-26T17:29:13.794Z,99.90
2022-09-26T17:31:45.757Z,99.90
2022-09-26T17:34:17.780Z,99.90
2022-09-26T17:36:50.161Z,99.90
2022-09-26T17:39:25.656Z,99.90
2022-09-26T17:41:59.302Z,99.90
2022-09-26T17:44:32.796Z,99.90
2022-09-26T17:47:06.127Z,99.90
2022-09-26T17:49:39.445Z,99.90
2022-09-26T17:52:32.214Z,99.90
2022-09-26T17:55:07.289Z,99.90
2022-09-26T17:57:41.946Z,99.90
2022-09-26T18:00:18.011Z,99.90
2022-09-26T18:03:03.908Z,99.90
2022-09-26T18:05:38.537Z,99.90
2022-09-26T18:08:16.593Z,99.90
2022-09-26T18:10:53.081Z,99.90
2022-09-26T18:13:31.493Z,99.90
2022-09-26T18:16:07.361Z,99.90
2022-09-26T18:18:39.390Z,99.90
2022-09-26T18:21:16.211Z,99.90
2022-09-26T18:23:55.897Z,99.90
2022-09-26T18:26:36.131Z,99.90
2022-09-26T18:29:13.556Z,99.90
2022-09-26T18:31:47.293Z,99.90
2022-09-26T18:34:20.529Z,99.90
2022-09-26T18:36:57.044Z,99.90
2022-09-26T18:39:30.478Z,99.90
2022-09-26T18:42:09.078Z,99.90
2022-09-26T18:44:42.615Z,99.90
2022-09-26T18:47:17.060Z,99.90
2022-09-26T18:49:53.051Z,99.90
2022-09-26T18:52:26.253Z,99.90
2022-09-26T18:55:17.519Z,99.90
2022-09-26T18:58:07.913Z,99.90
2022-09-26T19:00:40.180Z,99.90
2022-09-26T19:03:12.334Z,99.90
2022-09-26T19:05:44.475Z,99.90
2022-09-26T19:08:48.141Z,99.90
2022-09-26T19:11:22.248Z,99.90
2022-09-26T19:14:00.154Z,99.90
2022-09-26T19:16:32.307Z,99.90
2022-09-26T19:19:04.286Z,99.90
2022-09-26T19:21:57.886Z,99.90
2022-09-26T19:24:48.630Z,99.90
2022-09-26T19:27:46.807Z,99.90
2022-09-26T19:30:21.416Z,99.90
2022-09-26T19:32:56.168Z,99.90
2022-09-26T19:35:36.234Z,99.90
2022-09-26T19:38:19.097Z,99.90
2022-09-26T19:40:54.324Z,99.90
2022-09-26T19:43:26.358Z,99.90
2022-09-26T19:45:58.528Z,99.90
2022-09-26T19:48:35.088Z,99.90
2022-09-26T19:51:16.874Z,99.90
2022-09-26T19:53:48.843Z,99.90
2022-09-26T19:56:20.837Z,99.90
2022-09-26T19:58:52.869Z,99.90
2022-09-26T20:01:24.966Z,99.90
2022-09-26T20:03:56.975Z,99.90
2022-09-26T20:06:29.122Z,99.90
2022-09-26T20:09:02.101Z,99.90
2022-09-26T20:11:34.211Z,99.90
2022-09-26T20:14:24.637Z,99.90
2022-09-26T20:17:00.668Z,99.90
2022-09-26T20:19:34.479Z,99.90
2022-09-26T20:22:11.818Z,99.90
2022-09-26T20:24:45.562Z,99.90
2022-09-26T20:27:20.675Z,99.90
2022-09-26T20:30:11.203Z,99.90
2022-09-26T20:32:43.478Z,99.90
2022-09-26T20:35:15.673Z,99.90
2022-09-26T20:37:48.087Z,99.90
2022-09-26T20:40:22.664Z,99.90
2022-09-26T20:43:00.205Z,99.90
2022-09-26T20:45:38.328Z,99.90
2022-09-26T20:48:20.212Z,99.90
2022-09-26T20:50:52.880Z,99.90
2022-09-26T20:53:25.266Z,99.90
2022-09-26T20:55:57.467Z,99.90
2022-09-26T20:58:29.393Z,99.90
2022-09-26T21:01:01.782Z,99.90
2022-09-26T21:03:33.829Z,99.90
2022-09-26T21:06:09.768Z,99.90
2022-09-26T21:08:41.860Z,99.90
2022-09-26T21:11:19.670Z,99.90
2022-09-26T21:13:51.597Z,99.90
2022-09-26T21:16:23.741Z,99.90
2022-09-26T21:18:55.894Z,99.90
2022-09-26T21:21:30.602Z,99.90
2022-09-26T21:24:34.954Z,99.90
2022-09-26T21:27:11.457Z,99.90
2022-09-26T21:29:46.078Z,99.90
2022-09-26T21:32:21.044Z,99.90
2022-09-26T21:35:03.729Z,99.90
2022-09-26T21:37:36.106Z,99.90
2022-09-26T21:40:09.003Z,99.90
2022-09-26T21:42:43.710Z,99.90
2022-09-26T21:45:16.867Z,99.90
2022-09-26T21:47:49.700Z,99.90
2022-09-26T21:50:23.145Z,99.90
2022-09-26T21:53:10.668Z,99.90
2022-09-26T21:55:49.939Z,99.90
2022-09-26T21:58:27.282Z,99.90
2022-09-26T22:00:59.256Z,99.90
2022-09-26T22:03:32.180Z,99.90
2022-09-26T22:06:07.331Z,99.90
2022-09-26T22:08:40.719Z,99.90
2022-09-26T22:11:14.453Z,99.90
2022-09-26T22:13:46.532Z,99.90
2022-09-26T22:16:18.613Z,99.90
2022-09-26T22:18:50.603Z,99.90
2022-09-26T22:21:22.631Z,99.90
2022-09-26T22:23:54.647Z,99.90
2022-09-26T22:26:26.670Z,99.90
2022-09-26T22:28:58.593Z,99.90
2022-09-26T22:31:30.547Z,99.90
2022-09-26T22:34:02.491Z,99.90
2022-09-26T22:36:34.633Z,99.90
2022-09-26T22:39:06.632Z,99.90
2022-09-26T22:41:38.578Z,99.90
2022-09-26T22:44:10.563Z,99.90
2022-09-26T22:46:42.620Z,99.90
2022-09-26T22:49:14.845Z,99.90
2022-09-26T22:51:46.899Z,99.90
2022-09-26T22:54:19.580Z,99.90
2022-09-26T22:56:51.669Z,99.90
2022-09-26T22:59:23.639Z,99.90
2022-09-26T23:01:58.707Z,99.90
2022-09-26T23:04:46.998Z,99.90
2022-09-26T23:07:20.002Z,99.90
2022-09-26T23:09:52.071Z,99.90
2022-09-26T23:12:24.056Z,99.90
2022-09-26T23:14:55.995Z,99.90
2022-09-26T23:17:28.263Z,99.90
2022-09-26T23:20:00.271Z,99.90
2022-09-26T23:22:32.196Z,99.90
2022-09-26T23:25:04.401Z,99.90
2022-09-26T23:27:36.380Z,99.90
2022-09-26T23:30:08.826Z,99.90
2022-09-26T23:32:40.776Z,99.90
2022-09-26T23:35:13.106Z,99.90
2022-09-26T23:37:45.171Z,99.90
2022-09-26T23:40:17.219Z,99.90
2022-09-26T23:42:49.223Z,99.90
2022-09-26T23:45:21.212Z,99.90
2022-09-26T23:47:53.177Z,99.90
2022-09-26T23:50:25.983Z,99.90
2022-09-26T23:52:58.231Z,99.90
2022-09-26T23:55:30.182Z,99.90
2022-09-26T23:58:02.184Z,99.90
